Maran Pythia — SVAQ5 — position and weather

sailwx.info

Track history (hours):
 
Tides and Currents Weather Stations Pressure Air Temp Water Temp Dewpoint Dewpoint Depression Visibility Wind Speed Wind Dir Waves Ship Positions

Maran Pythia

Last reported at 2014-Nov-01 11:33 UTC. Time now 2014-Nov-01 12:00 UTC.
Position N 41°19' E 029°08'.

Length 274 m; draft 15.9 m.

Type: Tanker. MMSI: 240893000.

Date/timePositionNaut miles runAvg speedWind from/ knotsBaromVisibWave heightAir tempDewpointWater temp
2014-Nov-01 11:33N 41°19' E 029°08'14 0.5
2014-Oct-31 09:18N 41°31' E 029°16'6 8.6
2014-Oct-31 08:33N 41°26' E 029°22'7 6.6
2014-Oct-31 07:34N 41°24' E 029°30'4 3.8
2014-Oct-31 06:32N 41°27' E 029°27'2 1.9
2014-Oct-31 05:33N 41°28' E 029°25'8 8.1
2014-Oct-31 04:33N 41°31' E 029°35'23512.8
2014-Oct-30 10:09N 43°18' E 034°19'813.3
2014-Oct-30 09:33N 43°22' E 034°29'3113.5
2014-Oct-30 07:14N 43°36' E 035°07'913.5
2014-Oct-30 06:33N 43°40' E 035°19'1313.2
2014-Oct-30 05:33N 43°46' E 035°35'1613.2
2014-Oct-30 04:18N 43°54' E 035°55'1613.0
2014-Oct-30 03:05N 44°01' E 036°15'1012.9
2014-Oct-30 02:20N 44°05' E 036°27'1213.1
2014-Oct-30 01:26N 44°10' E 036°42'4113.2
2014-Oct-29 22:21N 44°29' E 037°32'1012.3
2014-Oct-29 21:33N 44°34' E 037°44'1 1.3
2014-Oct-29 20:28N 44°35' E 037°44'0 0.5
2014-Oct-29 19:31N 44°35' E 037°44'1 1.4
2014-Oct-29 18:34N 44°36' E 037°45'2 2.1
2014-Oct-29 17:33N 44°37' E 037°43'2 2.1
2014-Oct-29 16:33N 44°37' E 037°40'0 0.0
2014-Oct-29 14:33N 44°37' E 037°40'0 0.0
2014-Oct-29 13:33N 44°37' E 037°40'0 0.0
2014-Oct-29 12:33N 44°37' E 037°40'0 0.0
2014-Oct-29 11:33N 44°37' E 037°40'0 0.0
2014-Oct-29 10:33N 44°37' E 037°40'0 0.0
2014-Oct-29 09:30N 44°37' E 037°40'0 0.1
2014-Oct-29 08:30N 44°37' E 037°40'0 0.2
2014-Oct-29 07:33N 44°37' E 037°40'0 0.1
2014-Oct-29 06:12N 44°37' E 037°40'0 0.0
2014-Oct-29 05:33N 44°37' E 037°40'0 0.1
2014-Oct-29 04:33N 44°37' E 037°40'0 0.0
2014-Oct-29 03:24N 44°37' E 037°40'0 0.0
2014-Oct-29 02:24N 44°37' E 037°40'0 0.0
2014-Oct-29 01:03N 44°37' E 037°40'0 0.0
2014-Oct-29 00:24N 44°37' E 037°40'0 0.0
2014-Oct-28 23:21N 44°37' E 037°40'0 0.0
2014-Oct-28 21:27N 44°37' E 037°39'0 0.0
2014-Oct-28 20:33N 44°37' E 037°39'2 1.7
2014-Oct-28 19:33N 44°36' E 037°39'6 5.8
2014-Oct-28 18:34N 44°31' E 037°42'1 0.6
2014-Oct-28 17:33N 44°31' E 037°42'0 0.3
2014-Oct-28 16:33N 44°31' E 037°41'1 0.6
2014-Oct-28 15:33N 44°31' E 037°40'1 0.8
2014-Oct-28 14:33N 44°32' E 037°40'1 1.1
2014-Oct-28 13:33N 44°33' E 037°41'1 1.2
2014-Oct-28 12:33N 44°34' E 037°42'1 0.9
2014-Oct-28 11:33N 44°35' E 037°41'0 0.3
2014-Oct-28 10:33N 44°35' E 037°41'0 0.3
2014-Oct-28 09:33N 44°35' E 037°41'0 0.2
2014-Oct-28 08:33N 44°35' E 037°40'0 0.4
2014-Oct-28 07:33N 44°35' E 037°40'6 6.4
2014-Oct-28 06:33N 44°35' E 037°31'1514.3
2014-Oct-28 05:32N 44°36' E 037°10'3 2.6
2014-Oct-28 04:33N 44°35' E 037°07'3 1.2
2014-Oct-28 02:25N 44°33' E 037°09'1 1.3
2014-Oct-28 01:33N 44°32' E 037°09'2 1.5
2014-Oct-28 00:32N 44°31' E 037°10'7 1.9
2014-Oct-27 21:05N 44°27' E 037°17'6 2.4
2014-Oct-27 18:32N 44°25' E 037°26'3 2.9
2014-Oct-27 17:29N 44°25' E 037°30'6 6.1
2014-Oct-27 16:33N 44°27' E 037°22'3 1.0
2014-Oct-27 13:06N 44°29' E 037°19'1 2.3
2014-Oct-27 12:33N 44°29' E 037°20'2 2.2
2014-Oct-27 11:33N 44°29' E 037°23'4 4.2
2014-Oct-27 10:33N 44°29' E 037°29'1 1.3
2014-Oct-27 09:33N 44°31' E 037°30'1 1.2
2014-Oct-27 08:33N 44°32' E 037°30'2 2.1
2014-Oct-27 07:33N 44°34' E 037°29'9 8.6
2014-Oct-27 06:31N 44°33' E 037°17'9 9.0
2014-Oct-27 05:33N 44°33' E 037°04'2 1.7
2014-Oct-27 04:30N 44°32' E 037°02'1 1.1
2014-Oct-27 03:25N 44°32' E 037°04'1 1.1
2014-Oct-27 02:33N 44°33' E 037°05'1 1.1
2014-Oct-27 01:26N 44°32' E 037°07'3 1.5
2014-Oct-26 23:33N 44°31' E 037°10'11 2.6
2014-Oct-26 19:31N 44°28' E 037°25'4 3.4
2014-Oct-26 18:28N 44°28' E 037°30'5 5.7
2014-Oct-26 17:33N 44°31' E 037°23'10 9.6
2014-Oct-26 16:32N 44°35' E 037°12'5 1.2
2014-Oct-26 12:17N 44°37' E 037°04'2 2.7
2014-Oct-26 11:26N 44°37' E 037°08'2 2.6
2014-Oct-26 10:33N 44°36' E 037°11'3 3.0
2014-Oct-26 09:30N 44°35' E 037°15'4 3.9
2014-Oct-26 08:30N 44°33' E 037°20'1 0.1
2014-Oct-25 16:17N 44°34' E 037°21'3 0.2
2014-Oct-24 22:03N 44°37' E 037°19'3 3.1
2014-Oct-24 21:07N 44°36' E 037°23'2 3.7
2014-Oct-24 20:31N 44°35' E 037°26'4 4.5
2014-Oct-24 19:33N 44°34' E 037°32'5 4.9
2014-Oct-24 18:33N 44°34' E 037°25'10 2.0
2014-Oct-24 13:32N 44°35' E 037°12'2 1.8
2014-Oct-24 12:28N 44°35' E 037°14'2 2.0
2014-Oct-24 11:33N 44°35' E 037°17'3 2.6
2014-Oct-24 10:33N 44°34' E 037°20'3 3.2
2014-Oct-24 09:33N 44°33' E 037°25'3 3.2
2014-Oct-24 08:33N 44°33' E 037°29'4 4.4
2014-Oct-24 07:33N 44°30' E 037°34'9 8.6
2014-Oct-24 06:33N 44°23' E 037°27'16 8.3
2014-Oct-24 04:33N 44°16' E 037°06'36 8.9
2014-Oct-24 00:32N 43°59' E 036°22'9 9.1
2014-Oct-23 23:33N 43°55' E 036°11'12 9.1
2014-Oct-23 22:11N 43°49' E 035°55'9 9.3
2014-Oct-23 21:16N 43°45' E 035°45'7 9.5
2014-Oct-23 20:33N 43°42' E 035°36'10 9.4
2014-Oct-23 19:31N 43°38' E 035°25'10 9.4
2014-Oct-23 18:27N 43°33' E 035°12'8 9.2
2014-Oct-23 17:33N 43°29' E 035°02'9 9.1
2014-Oct-23 16:33N 43°25' E 034°51'10 9.5
2014-Oct-23 15:33N 43°21' E 034°39'10 9.6
2014-Oct-23 14:33N 43°17' E 034°28'10 9.9
2014-Oct-23 13:33N 43°12' E 034°16'1010.0
2014-Oct-23 12:33N 43°07' E 034°04'1210.4
2014-Oct-23 11:26N 43°02' E 033°50'910.2
2014-Oct-23 10:33N 42°58' E 033°39'2310.1
2014-Oct-23 08:17N 42°47' E 033°11'17810.1
2014-Oct-22 14:33N 41°25' E 029°37'1110.6
2014-Oct-22 13:33N 41°21' E 029°25'1111.0
2014-Oct-22 12:33N 41°16' E 029°12'  
Track history (hours):
 
Tides and Currents Weather Stations Pressure Air Temp Water Temp Dewpoint Dewpoint Depression Visibility Wind Speed Wind Dir Waves Ship Positions

Maran Pythia

Last reported at 2014-Nov-01 11:33 UTC. Time now 2014-Nov-01 12:00 UTC.
Position N 41°19' E 029°08'.

Length 274 m; draft 15.9 m.

Type: Tanker. MMSI: 240893000.

Date/timePositionNaut miles runAvg speedWind from/ knotsBaromVisibWave heightAir tempDewpointWater temp
2014-Nov-01 11:33N 41°19' E 029°08'14 0.5
2014-Oct-31 09:18N 41°31' E 029°16'6 8.6
2014-Oct-31 08:33N 41°26' E 029°22'7 6.6
2014-Oct-31 07:34N 41°24' E 029°30'4 3.8
2014-Oct-31 06:32N 41°27' E 029°27'2 1.9
2014-Oct-31 05:33N 41°28' E 029°25'8 8.1
2014-Oct-31 04:33N 41°31' E 029°35'23512.8
2014-Oct-30 10:09N 43°18' E 034°19'813.3
2014-Oct-30 09:33N 43°22' E 034°29'3113.5
2014-Oct-30 07:14N 43°36' E 035°07'913.5
2014-Oct-30 06:33N 43°40' E 035°19'1313.2
2014-Oct-30 05:33N 43°46' E 035°35'1613.2
2014-Oct-30 04:18N 43°54' E 035°55'1613.0
2014-Oct-30 03:05N 44°01' E 036°15'1012.9
2014-Oct-30 02:20N 44°05' E 036°27'1213.1
2014-Oct-30 01:26N 44°10' E 036°42'4113.2
2014-Oct-29 22:21N 44°29' E 037°32'1012.3
2014-Oct-29 21:33N 44°34' E 037°44'1 1.3
2014-Oct-29 20:28N 44°35' E 037°44'0 0.5
2014-Oct-29 19:31N 44°35' E 037°44'1 1.4
2014-Oct-29 18:34N 44°36' E 037°45'2 2.1
2014-Oct-29 17:33N 44°37' E 037°43'2 2.1
2014-Oct-29 16:33N 44°37' E 037°40'0 0.0
2014-Oct-29 14:33N 44°37' E 037°40'0 0.0
2014-Oct-29 13:33N 44°37' E 037°40'0 0.0
2014-Oct-29 12:33N 44°37' E 037°40'0 0.0
2014-Oct-29 11:33N 44°37' E 037°40'0 0.0
2014-Oct-29 10:33N 44°37' E 037°40'0 0.0
2014-Oct-29 09:30N 44°37' E 037°40'0 0.1
2014-Oct-29 08:30N 44°37' E 037°40'0 0.2
2014-Oct-29 07:33N 44°37' E 037°40'0 0.1
2014-Oct-29 06:12N 44°37' E 037°40'0 0.0
2014-Oct-29 05:33N 44°37' E 037°40'0 0.1
2014-Oct-29 04:33N 44°37' E 037°40'0 0.0
2014-Oct-29 03:24N 44°37' E 037°40'0 0.0
2014-Oct-29 02:24N 44°37' E 037°40'0 0.0
2014-Oct-29 01:03N 44°37' E 037°40'0 0.0
2014-Oct-29 00:24N 44°37' E 037°40'0 0.0
2014-Oct-28 23:21N 44°37' E 037°40'0 0.0
2014-Oct-28 21:27N 44°37' E 037°39'0 0.0
2014-Oct-28 20:33N 44°37' E 037°39'2 1.7
2014-Oct-28 19:33N 44°36' E 037°39'6 5.8
2014-Oct-28 18:34N 44°31' E 037°42'1 0.6
2014-Oct-28 17:33N 44°31' E 037°42'0 0.3
2014-Oct-28 16:33N 44°31' E 037°41'1 0.6
2014-Oct-28 15:33N 44°31' E 037°40'1 0.8
2014-Oct-28 14:33N 44°32' E 037°40'1 1.1
2014-Oct-28 13:33N 44°33' E 037°41'1 1.2
2014-Oct-28 12:33N 44°34' E 037°42'1 0.9
2014-Oct-28 11:33N 44°35' E 037°41'0 0.3
2014-Oct-28 10:33N 44°35' E 037°41'0 0.3
2014-Oct-28 09:33N 44°35' E 037°41'0 0.2
2014-Oct-28 08:33N 44°35' E 037°40'0 0.4
2014-Oct-28 07:33N 44°35' E 037°40'6 6.4
2014-Oct-28 06:33N 44°35' E 037°31'1514.3
2014-Oct-28 05:32N 44°36' E 037°10'3 2.6
2014-Oct-28 04:33N 44°35' E 037°07'3 1.2
2014-Oct-28 02:25N 44°33' E 037°09'1 1.3
2014-Oct-28 01:33N 44°32' E 037°09'2 1.5
2014-Oct-28 00:32N 44°31' E 037°10'7 1.9
2014-Oct-27 21:05N 44°27' E 037°17'6 2.4
2014-Oct-27 18:32N 44°25' E 037°26'3 2.9
2014-Oct-27 17:29N 44°25' E 037°30'6 6.1
2014-Oct-27 16:33N 44°27' E 037°22'3 1.0
2014-Oct-27 13:06N 44°29' E 037°19'1 2.3
2014-Oct-27 12:33N 44°29' E 037°20'2 2.2
2014-Oct-27 11:33N 44°29' E 037°23'4 4.2
2014-Oct-27 10:33N 44°29' E 037°29'1 1.3
2014-Oct-27 09:33N 44°31' E 037°30'1 1.2
2014-Oct-27 08:33N 44°32' E 037°30'2 2.1
2014-Oct-27 07:33N 44°34' E 037°29'9 8.6
2014-Oct-27 06:31N 44°33' E 037°17'9 9.0
2014-Oct-27 05:33N 44°33' E 037°04'2 1.7
2014-Oct-27 04:30N 44°32' E 037°02'1 1.1
2014-Oct-27 03:25N 44°32' E 037°04'1 1.1
2014-Oct-27 02:33N 44°33' E 037°05'1 1.1
2014-Oct-27 01:26N 44°32' E 037°07'3 1.5
2014-Oct-26 23:33N 44°31' E 037°10'11 2.6
2014-Oct-26 19:31N 44°28' E 037°25'4 3.4
2014-Oct-26 18:28N 44°28' E 037°30'5 5.7
2014-Oct-26 17:33N 44°31' E 037°23'10 9.6
2014-Oct-26 16:32N 44°35' E 037°12'5 1.2
2014-Oct-26 12:17N 44°37' E 037°04'2 2.7
2014-Oct-26 11:26N 44°37' E 037°08'2 2.6
2014-Oct-26 10:33N 44°36' E 037°11'3 3.0
2014-Oct-26 09:30N 44°35' E 037°15'4 3.9
2014-Oct-26 08:30N 44°33' E 037°20'1 0.1
2014-Oct-25 16:17N 44°34' E 037°21'3 0.2
2014-Oct-24 22:03N 44°37' E 037°19'3 3.1
2014-Oct-24 21:07N 44°36' E 037°23'2 3.7
2014-Oct-24 20:31N 44°35' E 037°26'4 4.5
2014-Oct-24 19:33N 44°34' E 037°32'5 4.9
2014-Oct-24 18:33N 44°34' E 037°25'10 2.0
2014-Oct-24 13:32N 44°35' E 037°12'2 1.8
2014-Oct-24 12:28N 44°35' E 037°14'2 2.0
2014-Oct-24 11:33N 44°35' E 037°17'3 2.6
2014-Oct-24 10:33N 44°34' E 037°20'3 3.2
2014-Oct-24 09:33N 44°33' E 037°25'3 3.2
2014-Oct-24 08:33N 44°33' E 037°29'4 4.4
2014-Oct-24 07:33N 44°30' E 037°34'9 8.6
2014-Oct-24 06:33N 44°23' E 037°27'16 8.3
2014-Oct-24 04:33N 44°16' E 037°06'36 8.9
2014-Oct-24 00:32N 43°59' E 036°22'9 9.1
2014-Oct-23 23:33N 43°55' E 036°11'12 9.1
2014-Oct-23 22:11N 43°49' E 035°55'9 9.3
2014-Oct-23 21:16N 43°45' E 035°45'7 9.5
2014-Oct-23 20:33N 43°42' E 035°36'10 9.4
2014-Oct-23 19:31N 43°38' E 035°25'10 9.4
2014-Oct-23 18:27N 43°33' E 035°12'8 9.2
2014-Oct-23 17:33N 43°29' E 035°02'9 9.1
2014-Oct-23 16:33N 43°25' E 034°51'10 9.5
2014-Oct-23 15:33N 43°21' E 034°39'10 9.6
2014-Oct-23 14:33N 43°17' E 034°28'10 9.9
2014-Oct-23 13:33N 43°12' E 034°16'1010.0
2014-Oct-23 12:33N 43°07' E 034°04'1210.4
2014-Oct-23 11:26N 43°02' E 033°50'910.2
2014-Oct-23 10:33N 42°58' E 033°39'2310.1
2014-Oct-23 08:17N 42°47' E 033°11'17810.1
2014-Oct-22 14:33N 41°25' E 029°37'1110.6
2014-Oct-22 13:33N 41°21' E 029°25'1111.0
2014-Oct-22 12:33N 41°16' E 029°12'  

Dump ship's entire track history